Time;durP1;ratioP1;P1;durP2;ratioP2;P2;SDS_P1;SDS_P2;PMS_P1;PMS_P2;Temp;Humidity;BMP_temperature;BMP_pressure;BME280_temperature;BME280_humidity;BME280_pressure;Samples;Min_cycle;Max_cycle;Signal;HPM_P1;HPM_P2
2024/01/18 00:00:34;;;;;;;28.80;15.20;;;-0.90;1.00;;;;;;5073077;28;20690;-76
2024/01/18 00:03:00;;;;;;;21.03;14.67;;;-1.00;1.00;;;;;;5073321;28;20179;-76
2024/01/18 00:05:26;;;;;;;27.48;17.10;;;-1.10;1.00;;;;;;5073895;28;20169;-76
2024/01/18 00:07:51;;;;;;;25.20;15.33;;;-1.10;1.00;;;;;;5073844;28;20174;-76
2024/01/18 00:10:17;;;;;;;26.83;17.40;;;-1.10;1.00;;;;;;5073867;28;20520;-73
2024/01/18 00:12:43;;;;;;;26.90;17.30;;;-1.10;1.00;;;;;;5072774;28;20194;-73
2024/01/18 00:15:09;;;;;;;33.50;19.33;;;-1.10;1.00;;;;;;5073578;28;20177;-74
2024/01/18 00:17:35;;;;;;;43.42;19.30;;;-1.10;1.00;;;;;;5055772;28;20572;-73
2024/01/18 00:20:00;;;;;;;33.00;18.43;;;-1.10;1.00;;;;;;5073523;28;20257;-74
2024/01/18 00:22:26;;;;;;;35.37;18.90;;;-1.00;1.00;;;;;;5072680;28;20197;-73
2024/01/18 00:24:52;;;;;;;27.63;17.43;;;-1.00;1.00;;;;;;5073566;28;20642;-76
2024/01/18 00:27:18;;;;;;;43.13;17.47;;;-1.00;1.00;;;;;;5073524;28;20626;-76
2024/01/18 00:29:43;;;;;;;33.97;18.87;;;-1.00;1.00;;;;;;5073439;28;20560;-77
2024/01/18 00:32:09;;;;;;;35.83;15.93;;;-1.10;1.00;;;;;;5072323;28;20847;-77
2024/01/18 00:34:35;;;;;;;35.80;18.07;;;-1.10;1.00;;;;;;5055549;28;20260;-76
2024/01/18 00:37:00;;;;;;;35.00;17.50;;;-1.10;1.00;;;;;;5073375;28;20197;-76
2024/01/18 00:39:26;;;;;;;29.33;17.13;;;-1.10;1.00;;;;;;5073419;28;20173;-73
2024/01/18 00:41:52;;;;;;;33.00;17.20;;;-1.00;1.00;;;;;;5072454;28;20257;-76
2024/01/18 00:44:17;;;;;;;26.13;16.47;;;-1.00;1.00;;;;;;5073224;28;20173;-73
2024/01/18 00:46:43;;;;;;;31.50;16.13;;;-1.00;1.00;;;;;;5055593;28;20185;-74
2024/01/18 00:49:09;;;;;;;29.63;17.90;;;-0.90;1.00;;;;;;5073338;28;20181;-76
2024/01/18 00:51:34;;;;;;;25.27;16.87;;;-0.80;1.00;;;;;;5072429;28;20180;-74
2024/01/18 00:54:02;;;;;;;35.93;18.13;;;-0.80;1.00;;;;;;5073199;28;20181;-74
2024/01/18 00:56:27;;;;;;;30.70;16.73;;;-0.80;1.00;;;;;;5073088;28;20190;-76
2024/01/18 00:58:53;;;;;;;29.33;18.87;;;-0.90;1.00;;;;;;5073095;28;20224;-76
2024/01/18 01:01:19;;;;;;;32.43;15.60;;;-0.90;1.00;;;;;;5072256;28;20204;-76
2024/01/18 01:03:44;;;;;;;24.87;16.07;;;-1.00;1.00;;;;;;5073213;28;20166;-73
2024/01/18 01:06:10;;;;;;;24.10;15.90;;;-1.10;1.00;;;;;;5073091;28;20178;-75
2024/01/18 01:08:36;;;;;;;32.60;19.67;;;-1.10;1.00;;;;;;5073130;28;20257;-77
2024/01/18 01:11:11;;;;;;;32.60;18.80;;;-1.00;1.00;;;;;;5072234;28;20431;-76
2024/01/18 01:13:36;;;;;;;27.90;16.30;;;-1.00;1.00;;;;;;5074000;28;20186;-76
2024/01/18 01:16:02;;;;;;;25.70;16.97;;;-1.00;1.00;;;;;;5077111;28;20204;-76
2024/01/18 01:18:28;;;;;;;48.13;16.20;;;-1.00;1.00;;;;;;5076987;28;20158;-74
2024/01/18 01:20:53;;;;;;;23.57;15.63;;;-1.10;1.00;;;;;;5076187;28;20623;-72
2024/01/18 01:23:19;;;;;;;27.80;16.40;;;-1.10;1.00;;;;;;5076942;28;20550;-73
2024/01/18 01:25:45;;;;;;;33.13;14.10;;;-1.10;1.00;;;;;;5076956;28;20166;-74
2024/01/18 01:28:10;;;;;;;24.20;16.40;;;-1.10;1.00;;;;;;5077031;28;20561;-76
2024/01/18 01:30:36;;;;;;;35.27;15.33;;;-1.10;1.00;;;;;;5076020;28;20577;-73
2024/01/18 01:33:02;;;;;;;26.17;17.00;;;-1.10;1.00;;;;;;5076058;28;20232;-73
2024/01/18 01:35:27;;;;;;;26.10;17.77;;;-1.10;1.00;;;;;;5075422;28;20193;-76
2024/01/18 01:37:53;;;;;;;25.97;15.60;;;-1.20;1.00;;;;;;5075471;28;20522;-76
2024/01/18 01:40:19;;;;;;;24.50;15.27;;;-1.20;1.00;;;;;;5075338;28;20166;-75
2024/01/18 01:42:45;;;;;;;26.70;15.50;;;-1.20;1.00;;;;;;5074333;28;20189;-76
2024/01/18 01:45:10;;;;;;;25.33;17.10;;;-1.20;1.00;;;;;;5075455;28;20404;-74
2024/01/18 01:47:36;;;;;;;25.00;17.53;;;-1.20;1.00;;;;;;5075324;28;20190;-76
2024/01/18 01:50:03;;;;;;;23.97;16.73;;;-1.30;1.00;;;;;;5075236;28;20162;-74
2024/01/18 01:52:31;;;;;;;27.40;16.58;;;-1.30;1.00;;;;;;5074231;28;20183;-74
2024/01/18 01:54:57;;;;;;;29.00;16.92;;;-1.30;1.00;;;;;;5057136;28;20530;-73
2024/01/18 01:57:24;;;;;;;29.70;18.60;;;-1.30;1.00;;;;;;5057125;28;20213;-73
2024/01/18 01:59:50;;;;;;;31.75;17.17;;;-1.40;1.00;;;;;;5057103;28;20170;-73
2024/01/18 02:02:17;;;;;;;24.08;16.92;;;-1.40;1.00;;;;;;5074155;28;20672;-75
2024/01/18 02:04:44;;;;;;;29.23;17.75;;;-1.40;1.00;;;;;;5075144;28;20166;-74
2024/01/18 02:07:12;;;;;;;29.73;16.70;;;-1.40;1.00;;;;;;5074954;28;20667;-76
2024/01/18 02:09:39;;;;;;;27.83;18.77;;;-1.40;1.00;;;;;;5074893;28;20202;-76
2024/01/18 02:12:07;;;;;;;27.52;16.90;;;-1.30;1.00;;;;;;5073956;28;20192;-73
2024/01/18 02:14:33;;;;;;;26.75;17.15;;;-1.40;1.00;;;;;;5074942;28;20198;-76
2024/01/18 02:16:59;;;;;;;21.63;13.85;;;-1.50;1.00;;;;;;5074747;28;20202;-74
2024/01/18 02:19:25;;;;;;;28.90;15.97;;;-1.70;1.00;;;;;;5074847;28;20227;-73
2024/01/18 02:21:51;;;;;;;26.43;16.00;;;-1.80;1.00;;;;;;5073932;28;20182;-76
2024/01/18 02:24:24;;;;;;;41.45;16.95;;;-1.90;1.00;;;;;;5074257;28;20499;-74
2024/01/18 02:26:49;;;;;;;30.00;15.65;;;-1.90;1.00;;;;;;5056903;28;20190;-73
2024/01/18 02:29:15;;;;;;;19.27;15.03;;;-2.00;1.00;;;;;;5074623;28;20219;-76
2024/01/18 02:31:41;;;;;;;39.08;15.55;;;-2.10;1.00;;;;;;5073621;28;20196;-76
2024/01/18 02:34:12;;;;;;;22.45;16.40;;;-2.20;1.00;;;;;;5021374;28;1542636;-73
2024/01/18 02:36:38;;;;;;;24.02;15.45;;;-2.20;1.00;;;;;;5075546;28;20281;-76
2024/01/18 02:39:04;;;;;;;22.93;15.47;;;-2.20;1.00;;;;;;5057837;28;20253;-77
2024/01/18 02:41:31;;;;;;;27.93;16.77;;;-2.10;1.00;;;;;;5074554;28;20170;-76
2024/01/18 02:43:59;;;;;;;31.27;18.40;;;-2.20;1.00;;;;;;5075513;28;20167;-75
2024/01/18 02:46:25;;;;;;;23.00;16.50;;;-2.20;1.00;;;;;;5075560;28;20170;-74
2024/01/18 02:48:50;;;;;;;24.60;15.97;;;-2.20;1.00;;;;;;5075483;28;20573;-73
2024/01/18 02:51:16;;;;;;;24.80;17.30;;;-2.20;1.00;;;;;;5074379;28;20615;-74
2024/01/18 02:53:43;;;;;;;27.33;16.43;;;-2.10;1.00;;;;;;5075225;28;20193;-73
2024/01/18 02:56:08;;;;;;;26.15;16.23;;;-2.10;1.00;;;;;;5075185;28;20198;-76
2024/01/18 02:58:34;;;;;;;28.27;18.23;;;-2.10;1.00;;;;;;5075220;28;20231;-75
2024/01/18 03:01:00;;;;;;;31.13;16.90;;;-2.20;1.00;;;;;;5074310;28;20167;-75
2024/01/18 03:03:25;;;;;;;31.10;16.97;;;-2.10;1.00;;;;;;5074977;28;20240;-75
2024/01/18 03:05:51;;;;;;;22.27;16.00;;;-2.20;1.00;;;;;;5075057;28;20170;-73
2024/01/18 03:08:17;;;;;;;27.33;15.67;;;-2.30;1.00;;;;;;5057094;28;20182;-76
2024/01/18 03:10:42;;;;;;;23.17;16.53;;;-2.30;1.00;;;;;;5074141;28;20170;-73
2024/01/18 03:13:08;;;;;;;25.80;16.97;;;-2.30;1.00;;;;;;5056877;28;20662;-74
2024/01/18 03:15:34;;;;;;;21.60;15.93;;;-2.50;1.00;;;;;;5074760;28;20273;-73
2024/01/18 03:17:59;;;;;;;22.80;17.03;;;-2.50;99.90;;;;;;5074875;28;20170;-75
2024/01/18 03:20:25;;;;;;;28.23;17.77;;;-2.60;99.90;;;;;;5074568;28;20193;-74
2024/01/18 03:22:51;;;;;;;21.97;16.20;;;-2.50;1.00;;;;;;5073933;28;20638;-76
2024/01/18 03:25:17;;;;;;;19.67;14.95;;;-2.50;1.00;;;;;;5074729;28;20521;-74
2024/01/18 03:27:43;;;;;;;21.57;15.40;;;-2.60;1.00;;;;;;5074633;28;20174;-73
2024/01/18 03:30:09;;;;;;;23.30;16.10;;;-2.60;1.00;;;;;;5074648;28;20174;-76
2024/01/18 03:32:35;;;;;;;19.48;14.95;;;-2.60;1.00;;;;;;5073513;28;20451;-75
2024/01/18 03:35:01;;;;;;;29.03;17.10;;;-2.50;1.00;;;;;;5074438;28;20171;-73
2024/01/18 03:37:26;;;;;;;25.25;16.20;;;-2.60;1.00;;;;;;5073580;28;20205;-76
2024/01/18 03:39:52;;;;;;;27.47;17.27;;;-2.60;99.90;;;;;;5056655;28;20591;-73
2024/01/18 03:42:18;;;;;;;25.67;17.07;;;-2.60;99.90;;;;;;5073418;28;20182;-76
2024/01/18 03:44:44;;;;;;;25.17;16.77;;;-2.60;99.90;;;;;;5074389;28;20201;-73
2024/01/18 03:47:09;;;;;;;21.30;14.80;;;-2.60;99.90;;;;;;5074253;28;20199;-72
2024/01/18 03:49:35;;;;;;;23.13;16.20;;;-2.70;99.90;;;;;;5074076;28;20538;-76
2024/01/18 03:52:01;;;;;;;24.13;15.27;;;-2.80;99.90;;;;;;5073199;28;20672;-76
2024/01/18 03:54:27;;;;;;;23.73;15.63;;;-2.70;99.90;;;;;;5074186;28;20166;-75
2024/01/18 03:56:53;;;;;;;20.40;15.95;;;-2.70;99.90;;;;;;5074069;28;20456;-73
2024/01/18 03:59:20;;;;;;;21.83;15.13;;;-2.70;99.90;;;;;;5074055;28;20190;-73
2024/01/18 04:01:46;;;;;;;20.80;15.32;;;-2.70;99.90;;;;;;5072944;28;20178;-75
2024/01/18 04:04:12;;;;;;;21.87;15.53;;;-2.70;99.90;;;;;;5073867;28;20220;-73
2024/01/18 04:06:38;;;;;;;19.00;15.32;;;-2.70;99.90;;;;;;5073926;28;20180;-76
2024/01/18 04:09:06;;;;;;;22.37;16.40;;;-2.70;99.90;;;;;;5073969;28;20175;-75
2024/01/18 04:11:31;;;;;;;24.95;15.65;;;-2.70;99.90;;;;;;5055124;28;20196;-76
2024/01/18 04:13:57;;;;;;;21.97;16.80;;;-2.80;99.90;;;;;;5073754;28;20170;-76
2024/01/18 04:16:23;;;;;;;26.20;15.80;;;-2.80;99.90;;;;;;5073770;28;20204;-76
2024/01/18 04:18:49;;;;;;;20.70;15.53;;;-2.80;99.90;;;;;;5073606;28;20541;-77
2024/01/18 04:21:14;;;;;;;22.00;16.50;;;-2.80;99.90;;;;;;5072779;28;20167;-73
2024/01/18 04:23:40;;;;;;;28.50;17.27;;;-2.80;99.90;;;;;;5073522;28;20545;-76
2024/01/18 04:26:06;;;;;;;20.83;16.90;;;-2.80;99.90;;;;;;5073590;28;20185;-76
2024/01/18 04:28:32;;;;;;;21.70;14.30;;;-2.90;99.90;;;;;;5055505;28;20174;-73
2024/01/18 04:30:58;;;;;;;25.50;16.03;;;-2.90;99.90;;;;;;5072643;28;20534;-75
2024/01/18 04:33:23;;;;;;;21.37;14.97;;;-2.90;99.90;;;;;;5073245;28;20211;-73
2024/01/18 04:35:49;;;;;;;19.50;15.73;;;-2.80;99.90;;;;;;5073354;28;20685;-76
2024/01/18 04:38:15;;;;;;;17.47;15.37;;;-2.80;99.90;;;;;;5073386;28;20158;-76
2024/01/18 04:40:40;;;;;;;20.43;15.30;;;-2.80;99.90;;;;;;5072221;28;20257;-77
2024/01/18 04:43:06;;;;;;;17.50;13.77;;;-2.70;99.90;;;;;;5073312;28;20280;-76
2024/01/18 04:45:32;;;;;;;20.20;14.90;;;-2.70;99.90;;;;;;5073376;28;20170;-73
2024/01/18 04:47:58;;;;;;;23.97;15.13;;;-2.60;99.90;;;;;;5073115;28;20393;-77
2024/01/18 04:50:25;;;;;;;23.75;15.20;;;-2.60;99.90;;;;;;5073128;28;20630;-77
2024/01/18 04:52:52;;;;;;;21.40;15.98;;;-2.60;99.90;;;;;;5072480;28;20204;-76
2024/01/18 04:55:17;;;;;;;21.55;15.25;;;-2.60;99.90;;;;;;5055208;28;20527;-73
2024/01/18 04:57:44;;;;;;;23.10;15.20;;;-2.60;99.90;;;;;;5073268;28;20170;-76
2024/01/18 05:00:10;;;;;;;21.67;16.42;;;-2.70;99.90;;;;;;5073116;28;20193;-74
2024/01/18 05:02:37;;;;;;;21.55;15.32;;;-2.70;99.90;;;;;;5071646;28;20197;-73
2024/01/18 05:05:03;;;;;;;20.45;16.10;;;-2.70;99.90;;;;;;5073170;28;20162;-76
2024/01/18 05:07:29;;;;;;;19.50;13.47;;;-2.70;99.90;;;;;;5072930;28;20185;-71
2024/01/18 05:09:54;;;;;;;19.97;15.33;;;-2.70;99.90;;;;;;5073140;28;20451;-72
2024/01/18 05:12:20;;;;;;;20.50;14.57;;;-2.70;99.90;;;;;;5072015;28;20194;-75
2024/01/18 05:14:46;;;;;;;24.13;15.17;;;-2.80;99.90;;;;;;5073063;28;20177;-73
2024/01/18 05:17:12;;;;;;;19.00;13.97;;;-2.80;99.90;;;;;;5072898;28;20448;-73
2024/01/18 05:19:39;;;;;;;21.30;14.57;;;-2.80;99.90;;;;;;5073039;28;20237;-76
2024/01/18 05:22:04;;;;;;;20.55;14.52;;;-2.80;99.90;;;;;;5072037;28;20190;-76
2024/01/18 05:24:30;;;;;;;16.90;13.47;;;-2.80;99.90;;;;;;5072863;28;20182;-76
2024/01/18 05:26:56;;;;;;;17.53;15.27;;;-2.90;99.90;;;;;;5072884;28;20408;-72
2024/01/18 05:29:22;;;;;;;21.92;14.15;;;-2.90;99.90;;;;;;5054949;28;20412;-73
2024/01/18 05:31:48;;;;;;;20.17;13.70;;;-2.90;99.90;;;;;;5071865;28;20259;-73
2024/01/18 05:34:14;;;;;;;24.30;13.90;;;-2.90;99.90;;;;;;5072754;28;20308;-73
2024/01/18 05:36:40;;;;;;;21.77;15.20;;;-2.90;99.90;;;;;;5072677;28;20288;-76
2024/01/18 05:39:05;;;;;;;19.87;15.17;;;-2.90;99.90;;;;;;5072772;28;20405;-73
2024/01/18 05:41:31;;;;;;;23.17;16.67;;;-2.90;99.90;;;;;;5071918;28;20206;-73
2024/01/18 05:43:57;;;;;;;21.30;14.90;;;-2.90;99.90;;;;;;5072794;28;20173;-76
2024/01/18 05:46:23;;;;;;;22.43;15.47;;;-2.90;99.90;;;;;;5072626;28;20177;-76
2024/01/18 05:48:50;;;;;;;22.83;15.70;;;-2.90;99.90;;;;;;5072611;28;20401;-77
2024/01/18 05:51:16;;;;;;;19.05;15.20;;;-3.00;99.90;;;;;;5071774;28;20174;-72
2024/01/18 05:53:43;;;;;;;22.03;14.80;;;-3.00;99.90;;;;;;5072582;28;20282;-74
2024/01/18 05:56:09;;;;;;;29.70;17.40;;;-3.00;99.90;;;;;;5072456;28;20194;-73
2024/01/18 05:58:35;;;;;;;28.47;17.57;;;-3.00;99.90;;;;;;5072542;28;20169;-76
2024/01/18 06:01:00;;;;;;;24.37;14.37;;;-3.00;99.90;;;;;;5056658;28;20515;-76
2024/01/18 06:03:29;;;;;;;24.70;18.20;;;-3.00;99.90;;;;;;5075939;28;20428;-76
2024/01/18 06:05:58;;;;;;;28.90;18.33;;;-3.00;99.90;;;;;;5076157;28;20162;-73
2024/01/18 06:08:24;;;;;;;24.45;15.95;;;-3.00;99.90;;;;;;5058138;28;20661;-73
2024/01/18 06:10:50;;;;;;;22.45;16.05;;;-3.10;99.90;;;;;;5056915;28;20241;-76
2024/01/18 06:13:16;;;;;;;27.27;16.38;;;-3.10;99.90;;;;;;5075972;28;20197;-73
2024/01/18 06:15:42;;;;;;;21.20;15.00;;;-3.10;99.90;;;;;;5058008;28;20194;-76
2024/01/18 06:18:17;;;;;;;29.70;17.10;;;-3.10;99.90;;;;;;5076075;28;20219;-74
2024/01/18 06:20:43;;;;;;;23.00;16.45;;;-3.10;99.90;;;;;;5074898;28;20173;-76
2024/01/18 06:23:09;;;;;;;23.97;16.43;;;-3.10;99.90;;;;;;5075802;28;20186;-76
2024/01/18 06:25:35;;;;;;;27.70;16.97;;;-3.10;99.90;;;;;;5075825;28;20631;-73
2024/01/18 06:28:02;;;;;;;24.40;16.87;;;-3.10;99.90;;;;;;5075643;28;20170;-73
2024/01/18 06:30:28;;;;;;;34.78;17.02;;;-3.10;99.90;;;;;;5075372;28;20431;-83
2024/01/18 06:32:56;;;;;;;21.00;14.90;;;-3.10;99.90;;;;;;5075031;28;20327;-79
2024/01/18 06:35:22;;;;;;;23.27;15.38;;;-3.10;99.90;;;;;;5058083;28;20415;-75
2024/01/18 06:37:48;;;;;;;24.38;16.67;;;-3.10;99.90;;;;;;5075261;28;20593;-76
2024/01/18 06:40:15;;;;;;;26.57;17.30;;;-3.10;99.90;;;;;;5075644;28;20254;-76
2024/01/18 06:42:42;;;;;;;31.27;16.63;;;-3.10;99.90;;;;;;5074485;28;20531;-78
2024/01/18 06:45:08;;;;;;;36.85;19.77;;;-3.10;99.90;;;;;;5057488;28;20623;-75
2024/01/18 06:47:35;;;;;;;36.40;21.08;;;-3.10;99.90;;;;;;5075451;28;20249;-76
2024/01/18 06:50:00;;;;;;;24.88;17.20;;;-3.10;99.90;;;;;;5075394;28;20702;-77
2024/01/18 06:52:26;;;;;;;27.87;15.70;;;-3.10;99.90;;;;;;5074178;28;20311;-76
2024/01/18 06:54:52;;;;;;;23.13;16.47;;;-3.10;99.90;;;;;;5075336;28;20194;-78
2024/01/18 06:57:19;;;;;;;23.50;16.52;;;-3.10;99.90;;;;;;5074915;28;20197;-76
2024/01/18 06:59:47;;;;;;;22.08;16.40;;;-3.10;99.90;;;;;;5075365;28;20510;-75
2024/01/18 07:02:14;;;;;;;22.52;15.70;;;-3.20;99.90;;;;;;5074156;28;20182;-75
2024/01/18 07:04:40;;;;;;;23.13;16.27;;;-3.30;99.90;;;;;;5075135;28;20257;-75
2024/01/18 07:07:06;;;;;;;22.02;17.20;;;-3.30;99.90;;;;;;5074998;28;20213;-77
2024/01/18 07:09:33;;;;;;;21.43;16.00;;;-3.40;99.90;;;;;;5057064;28;20642;-76
2024/01/18 07:11:59;;;;;;;23.05;15.95;;;-3.40;99.90;;;;;;5055194;28;20443;-76
2024/01/18 07:14:26;;;;;;;21.90;16.52;;;-3.40;99.90;;;;;;5075103;28;20182;-76
2024/01/18 07:16:55;;;;;;;18.27;13.60;;;-3.40;99.90;;;;;;5074928;28;20542;-76
2024/01/18 07:19:22;;;;;;;25.02;16.65;;;-3.40;99.90;;;;;;5040481;28;20424;-75
2024/01/18 07:21:47;;;;;;;20.63;14.20;;;-3.40;99.90;;;;;;5073919;28;20307;-75
2024/01/18 07:24:14;;;;;;;20.03;15.00;;;-3.30;99.90;;;;;;5074671;28;20682;-75
2024/01/18 07:26:39;;;;;;;19.98;14.23;;;-3.40;99.90;;;;;;5056947;28;20619;-75
2024/01/18 07:29:05;;;;;;;18.27;14.87;;;-3.30;99.90;;;;;;5056605;28;20232;-76
2024/01/18 07:31:31;;;;;;;24.23;17.70;;;-3.30;99.90;;;;;;5055794;28;20231;-76
2024/01/18 07:33:58;;;;;;;29.45;15.07;;;-3.30;99.90;;;;;;5072907;28;20194;-76
2024/01/18 07:36:23;;;;;;;21.38;16.17;;;-3.30;99.90;;;;;;5040052;28;20205;-75
2024/01/18 07:38:51;;;;;;;15.77;14.10;;;-3.30;99.90;;;;;;5074229;28;20634;-75
2024/01/18 07:41:17;;;;;;;33.80;19.65;;;-3.30;99.90;;;;;;5073521;28;20201;-77
2024/01/18 07:43:43;;;;;;;41.30;19.43;;;-3.30;99.90;;;;;;5074227;28;20213;-75
2024/01/18 07:46:08;;;;;;;65.70;25.77;;;-3.30;99.90;;;;;;5056384;28;20239;-75
2024/01/18 07:48:34;;;;;;;42.17;21.00;;;-3.30;99.90;;;;;;5074203;28;20522;-75
2024/01/18 07:51:00;;;;;;;24.70;15.27;;;-3.30;99.90;;;;;;5073315;28;20542;-74
2024/01/18 07:53:26;;;;;;;18.90;14.87;;;-3.20;99.90;;;;;;5074022;28;20703;-77
2024/01/18 07:55:51;;;;;;;24.43;13.10;;;-3.20;99.90;;;;;;5056060;28;20643;-75
2024/01/18 07:58:17;;;;;;;17.13;13.00;;;-3.10;99.90;;;;;;5074110;28;20428;-75
2024/01/18 08:00:44;;;;;;;22.20;12.80;;;-3.10;99.90;;;;;;5073198;28;20249;-76
2024/01/18 08:03:10;;;;;;;22.83;14.93;;;-3.00;99.90;;;;;;5073884;28;20236;-75
2024/01/18 08:05:36;;;;;;;28.67;16.40;;;-2.90;99.90;;;;;;5073824;28;20630;-76
2024/01/18 08:08:01;;;;;;;33.83;18.48;;;-2.90;99.90;;;;;;5073824;28;20622;-75
2024/01/18 08:10:27;;;;;;;19.43;13.80;;;-2.90;99.90;;;;;;5074051;28;20177;-80
2024/01/18 08:12:53;;;;;;;22.20;13.67;;;-2.90;99.90;;;;;;5073159;28;20186;-75
2024/01/18 08:15:19;;;;;;;25.23;12.18;;;-2.80;99.90;;;;;;5055858;28;20185;-75
2024/01/18 08:17:45;;;;;;;18.67;11.63;;;-2.80;99.90;;;;;;5073619;28;20578;-76
2024/01/18 08:20:14;;;;;;;14.03;11.70;;;-2.80;99.90;;;;;;5073681;28;20436;-75
2024/01/18 08:22:40;;;;;;;15.70;11.77;;;-2.60;99.90;;;;;;5072289;28;20676;-75
2024/01/18 08:25:07;;;;;;;15.27;11.60;;;-2.60;99.90;;;;;;5073612;28;20163;-75
2024/01/18 08:27:33;;;;;;;13.55;11.60;;;-2.60;99.90;;;;;;5073412;28;20216;-75
2024/01/18 08:29:59;;;;;;;15.07;12.37;;;-2.50;99.90;;;;;;5073392;28;20212;-75
2024/01/18 08:32:31;;;;;;;15.13;11.20;;;-2.50;99.90;;;;;;5072609;28;20303;-75
2024/01/18 08:34:57;;;;;;;13.75;11.02;;;-2.40;99.90;;;;;;5055383;28;20178;-76
2024/01/18 08:37:23;;;;;;;15.63;10.40;;;-2.30;99.90;;;;;;5073453;28;20202;-75
2024/01/18 08:39:49;;;;;;;14.90;11.40;;;-2.30;99.90;;;;;;5073417;28;20206;-76
2024/01/18 08:42:15;;;;;;;18.65;13.18;;;-2.20;99.90;;;;;;5072384;28;20550;-75
2024/01/18 08:44:45;;;;;;;14.20;11.37;;;-2.20;99.90;;;;;;5073346;28;20171;-75
2024/01/18 08:47:12;;;;;;;14.68;10.98;;;-2.20;99.90;;;;;;5073333;28;20290;-75
2024/01/18 08:49:38;;;;;;;19.42;11.82;;;-2.20;99.90;;;;;;5055573;28;20182;-75
2024/01/18 08:52:04;;;;;;;15.45;10.95;;;-2.10;99.90;;;;;;5072158;28;20327;-75
2024/01/18 08:54:30;;;;;;;14.10;10.33;;;-2.00;99.90;;;;;;5073279;28;20249;-75
2024/01/18 08:56:56;;;;;;;14.18;11.45;;;-2.00;99.90;;;;;;5073224;28;20455;-75
2024/01/18 08:59:23;;;;;;;15.18;10.38;;;-2.00;99.90;;;;;;5073161;28;20172;-74
2024/01/18 09:01:49;;;;;;;16.08;12.45;;;-2.10;99.90;;;;;;5072294;28;20657;-75
2024/01/18 09:04:15;;;;;;;15.88;11.18;;;-2.10;99.90;;;;;;5073028;28;20223;-76
2024/01/18 09:06:41;;;;;;;18.08;12.40;;;-2.10;99.90;;;;;;5073189;28;20236;-75
2024/01/18 09:09:09;;;;;;;16.70;10.90;;;-2.00;99.90;;;;;;5073126;28;20618;-75
2024/01/18 09:11:36;;;;;;;14.43;11.98;;;-2.00;99.90;;;;;;5072217;28;20406;-75
2024/01/18 09:14:02;;;;;;;12.38;10.77;;;-1.80;99.90;;;;;;5073018;28;20567;-75
2024/01/18 09:16:28;;;;;;;17.70;11.80;;;-1.70;99.90;;;;;;5072906;28;20251;-73
2024/01/18 09:18:54;;;;;;;16.70;11.87;;;-1.60;99.90;;;;;;5072987;28;20561;-74
2024/01/18 09:21:19;;;;;;;13.53;11.10;;;-1.50;99.90;;;;;;5072199;28;20411;-74
2024/01/18 09:23:45;;;;;;;15.37;12.20;;;-1.40;99.90;;;;;;5073024;28;20170;-74
2024/01/18 09:26:11;;;;;;;15.30;12.17;;;-1.30;99.90;;;;;;5073231;28;20268;-74
2024/01/18 09:28:36;;;;;;;17.60;11.60;;;-1.20;99.90;;;;;;5072967;28;20404;-74
2024/01/18 09:31:02;;;;;;;14.63;11.27;;;-1.10;99.90;;;;;;5072021;28;20166;-74
2024/01/18 09:33:28;;;;;;;13.77;9.40;;;-1.10;99.90;;;;;;5072662;28;20206;-74
2024/01/18 09:35:54;;;;;;;14.83;11.40;;;-1.00;99.90;;;;;;5076028;28;20200;-72
2024/01/18 09:38:21;;;;;;;13.57;10.60;;;-1.00;99.90;;;;;;5076791;28;20162;-75
2024/01/18 09:40:48;;;;;;;14.00;10.88;;;-0.90;99.90;;;;;;5075860;28;20658;-76
2024/01/18 09:43:15;;;;;;;13.52;10.07;;;-0.90;99.90;;;;;;5076654;28;20190;-74
2024/01/18 09:45:48;;;;;;;14.20;10.35;;;-0.80;99.90;;;;;;5076629;28;20165;-75
2024/01/18 09:48:14;;;;;;;14.77;9.70;;;-0.90;99.90;;;;;;5076496;28;20158;-77
2024/01/18 09:50:44;;;;;;;11.90;9.70;;;-0.90;99.90;;;;;;5075584;28;20182;-76
2024/01/18 09:53:13;;;;;;;13.30;9.73;;;-0.90;99.90;;;;;;5076394;28;20269;-74
2024/01/18 09:55:39;;;;;;;16.30;9.80;;;-0.80;99.90;;;;;;5076391;28;20245;-75
2024/01/18 09:58:11;;;;;;;13.30;9.90;;;-0.60;99.90;;;;;;5076385;28;20249;-74
2024/01/18 10:00:41;;;;;;;13.77;10.10;;;-0.60;99.90;;;;;;5075411;28;20170;-75
2024/01/18 10:03:07;;;;;;;14.57;10.77;;;-0.50;99.90;;;;;;5076214;28;20190;-75
2024/01/18 10:05:33;;;;;;;15.83;10.10;;;-0.40;99.90;;;;;;5076255;28;20403;-75
2024/01/18 10:07:59;;;;;;;14.03;10.23;;;-0.30;99.90;;;;;;5076286;28;20204;-76
2024/01/18 10:10:25;;;;;;;10.83;9.70;;;-0.30;99.90;;;;;;5076016;28;20159;-76
2024/01/18 10:12:51;;;;;;;11.90;10.50;;;-0.20;99.90;;;;;;5075179;28;20860;-77
2024/01/18 10:15:33;;;;;;;11.20;9.20;;;-0.20;99.90;;;;;;5076048;28;20166;-74
2024/01/18 10:18:06;;;;;;;12.60;9.20;;;-0.20;99.90;;;;;;5076094;28;20170;-76
2024/01/18 10:20:32;;;;;;;14.70;10.03;;;-0.10;99.90;;;;;;5075180;28;20398;-77
2024/01/18 10:22:59;;;;;;;10.10;8.50;;;-0.20;99.90;;;;;;5075750;28;20419;-74
2024/01/18 10:25:29;;;;;;;12.90;9.10;;;-0.10;99.90;;;;;;5075974;28;20771;-74
2024/01/18 10:27:56;;;;;;;10.50;9.40;;;-0.10;99.90;;;;;;5075858;28;20396;-74
2024/01/18 10:30:22;;;;;;;13.07;9.00;;;0.00;99.90;;;;;;5075760;28;20400;-77
2024/01/18 10:32:49;;;;;;;10.88;9.82;;;-0.10;99.90;;;;;;5056870;28;20505;-76
2024/01/18 10:35:25;;;;;;;8.38;7.28;;;-0.10;99.90;;;;;;5075800;28;20530;-77
2024/01/18 10:38:03;;;;;;;12.40;8.83;;;0.00;99.90;;;;;;5075593;28;20190;-77
2024/01/18 10:40:31;;;;;;;9.55;8.48;;;0.10;1.00;;;;;;5075244;28;20403;-80
2024/01/18 10:42:57;;;;;;;7.50;6.70;;;0.20;1.00;;;;;;5075218;28;20269;-76
2024/01/18 10:45:23;;;;;;;8.70;7.40;;;0.30;1.00;;;;;;5075271;28;20921;-74
2024/01/18 10:47:49;;;;;;;8.00;6.87;;;0.40;1.00;;;;;;5075357;28;20404;-74
2024/01/18 10:50:16;;;;;;;7.97;5.90;;;0.40;1.00;;;;;;5075314;28;20927;-74
2024/01/18 10:52:45;;;;;;;9.57;7.27;;;0.50;1.00;;;;;;5074257;28;20420;-74
2024/01/18 10:55:12;;;;;;;9.93;6.37;;;0.60;1.00;;;;;;5075168;28;20404;-74
2024/01/18 10:57:38;;;;;;;8.20;6.20;;;0.50;1.00;;;;;;5075305;28;20509;-74
2024/01/18 11:00:07;;;;;;;5.90;5.40;;;0.60;1.00;;;;;;5075218;28;20392;-74
2024/01/18 11:02:40;;;;;;;9.30;6.07;;;0.60;1.00;;;;;;5074310;28;20409;-76
2024/01/18 11:05:09;;;;;;;7.73;5.80;;;0.70;1.00;;;;;;5074996;28;20914;-77
2024/01/18 11:07:39;;;;;;;6.47;5.83;;;0.80;1.00;;;;;;5075155;28;20407;-74
2024/01/18 11:10:12;;;;;;;6.40;5.43;;;0.80;99.90;;;;;;5075085;28;20500;-76
2024/01/18 11:12:41;;;;;;;6.60;5.93;;;0.90;1.00;;;;;;5074416;28;20416;-77
2024/01/18 11:15:10;;;;;;;5.97;5.33;;;0.90;99.90;;;;;;5057060;28;20813;-74
2024/01/18 11:17:46;;;;;;;8.70;5.97;;;0.90;99.90;;;;;;5056853;28;20459;-74
2024/01/18 11:20:13;;;;;;;4.37;4.00;;;1.00;99.90;;;;;;5074963;28;20419;-77
2024/01/18 11:22:42;;;;;;;6.60;4.37;;;0.90;99.90;;;;;;5073896;28;20412;-74
2024/01/18 11:25:09;;;;;;;4.97;4.50;;;1.00;99.90;;;;;;5074789;28;20401;-74
2024/01/18 11:27:39;;;;;;;4.70;4.27;;;1.10;99.90;;;;;;5074771;28;20912;-75
2024/01/18 11:30:37;;;;;;;6.10;4.80;;;1.10;99.90;;;;;;5074652;28;20730;-77
2024/01/18 11:33:06;;;;;;;5.10;4.70;;;1.00;99.90;;;;;;5068183;28;20452;-75
2024/01/18 11:35:33;;;;;;;4.40;4.00;;;1.00;99.90;;;;;;5074426;28;20973;-76
2024/01/18 11:38:18;;;;;;;5.60;4.30;;;1.00;99.90;;;;;;5074507;28;20397;-76
2024/01/18 11:40:44;;;;;;;4.57;4.20;;;1.00;99.90;;;;;;5073599;28;20903;-77
2024/01/18 11:43:11;;;;;;;4.90;3.63;;;1.00;99.90;;;;;;5074294;28;20416;-75
2024/01/18 11:45:37;;;;;;;5.30;4.10;;;1.00;99.90;;;;;;5074307;28;20397;-75
2024/01/18 11:48:03;;;;;;;4.03;3.73;;;0.90;99.90;;;;;;5074382;28;20454;-74
2024/01/18 11:50:29;;;;;;;6.13;4.17;;;0.80;99.90;;;;;;5073775;28;20396;-82
2024/01/18 11:52:55;;;;;;;5.23;4.73;;;0.80;99.90;;;;;;5073837;28;20465;-77
2024/01/18 11:55:21;;;;;;;4.70;4.30;;;0.80;99.90;;;;;;5056044;28;20174;-75
2024/01/18 11:57:50;;;;;;;8.27;4.00;;;0.90;99.90;;;;;;5073160;28;20456;-74
2024/01/18 12:00:16;;;;;;;4.73;4.33;;;0.80;99.90;;;;;;5074106;28;20393;-76
2024/01/18 12:02:42;;;;;;;5.90;4.30;;;0.90;99.90;;;;;;5072978;28;20931;-75
2024/01/18 12:05:08;;;;;;;5.73;3.87;;;0.90;99.90;;;;;;5073900;28;20404;-74
2024/01/18 12:07:35;;;;;;;5.00;4.37;;;1.00;99.90;;;;;;5073674;28;20792;-76
2024/01/18 12:10:01;;;;;;;5.43;4.03;;;1.00;99.90;;;;;;5073464;28;20492;-74
2024/01/18 12:12:28;;;;;;;4.23;3.90;;;1.10;99.90;;;;;;5072767;28;20428;-74
2024/01/18 12:14:53;;;;;;;4.10;3.70;;;1.10;99.90;;;;;;5073687;28;20807;-76
2024/01/18 12:17:19;;;;;;;3.10;2.90;;;1.10;99.90;;;;;;5073679;28;20460;-74
2024/01/18 12:19:46;;;;;;;4.93;3.07;;;1.10;99.90;;;;;;5073645;28;20652;-74
2024/01/18 12:22:17;;;;;;;5.10;2.70;;;1.10;99.90;;;;;;5054697;28;20456;-74
2024/01/18 12:24:44;;;;;;;5.80;3.27;;;1.20;99.90;;;;;;5073562;28;20437;-74
2024/01/18 12:27:10;;;;;;;3.60;3.10;;;1.10;99.90;;;;;;5073598;28;20923;-75
2024/01/18 12:29:38;;;;;;;3.83;3.33;;;1.20;99.90;;;;;;5073500;28;20401;-77
2024/01/18 12:32:04;;;;;;;3.60;3.00;;;1.20;99.90;;;;;;5054407;28;20489;-76